createdAt,value
2018-09-15T00:00:15.837Z,29.40
2018-09-15T00:02:44.500Z,27.83
2018-09-15T00:05:13.716Z,24.57
2018-09-15T00:07:42.462Z,27.10
2018-09-15T00:10:13.791Z,25.80
2018-09-15T00:12:42.276Z,34.97
2018-09-15T00:15:10.753Z,30.70
2018-09-15T00:17:40.625Z,24.27
2018-09-15T00:20:09.937Z,23.57
2018-09-15T00:22:38.414Z,24.30
2018-09-15T00:25:07.187Z,32.27
2018-09-15T00:27:35.677Z,26.33
2018-09-15T00:30:04.267Z,24.70
2018-09-15T00:32:32.770Z,26.70
2018-09-15T00:35:01.382Z,25.70
2018-09-15T00:37:29.824Z,29.10
2018-09-15T00:39:58.405Z,34.73
2018-09-15T00:42:26.856Z,28.53
2018-09-15T00:44:55.417Z,37.63
2018-09-15T00:47:23.962Z,28.73
2018-09-15T00:49:52.545Z,24.60
2018-09-15T00:52:21.447Z,28.00
2018-09-15T00:54:50.173Z,29.50
2018-09-15T00:57:18.887Z,30.93
2018-09-15T00:59:47.394Z,33.33
2018-09-15T01:02:15.905Z,31.93
2018-09-15T01:04:44.944Z,28.90
2018-09-15T01:07:14.417Z,34.63
2018-09-15T01:09:42.970Z,25.53
2018-09-15T01:12:11.420Z,28.33
2018-09-15T01:14:39.840Z,34.70
2018-09-15T01:17:08.381Z,28.50
2018-09-15T01:19:36.813Z,33.80
2018-09-15T01:22:05.306Z,28.00
2018-09-15T01:24:33.877Z,30.23
2018-09-15T01:27:02.590Z,26.40
2018-09-15T01:29:31.157Z,25.47
2018-09-15T01:31:59.617Z,24.70
2018-09-15T01:34:28.079Z,29.97
2018-09-15T01:36:56.620Z,34.53
2018-09-15T01:39:25.118Z,34.23
2018-09-15T01:41:53.577Z,41.87
2018-09-15T01:44:22.060Z,34.20
2018-09-15T01:46:50.542Z,37.80
2018-09-15T01:49:19.104Z,36.00
2018-09-15T01:51:47.512Z,32.03
2018-09-15T01:54:16.065Z,34.53
2018-09-15T01:56:44.487Z,31.57
2018-09-15T01:59:13.089Z,33.90
2018-09-15T02:01:41.620Z,33.27
2018-09-15T02:04:11.098Z,34.10
2018-09-15T02:06:39.564Z,32.77
2018-09-15T02:09:11.236Z,30.03
2018-09-15T02:11:39.687Z,30.03
2018-09-15T02:14:08.178Z,32.67
2018-09-15T02:16:36.725Z,31.37
2018-09-15T02:19:05.245Z,32.50
2018-09-15T02:21:33.746Z,27.47
2018-09-15T02:24:02.192Z,30.27
2018-09-15T02:26:30.654Z,26.77
2018-09-15T02:28:59.250Z,24.63
2018-09-15T02:31:27.747Z,29.17
2018-09-15T02:33:56.230Z,29.17
2018-09-15T02:36:24.991Z,26.50
2018-09-15T02:38:53.421Z,29.20
2018-09-15T02:41:21.864Z,30.40
2018-09-15T02:43:50.406Z,27.63
2018-09-15T02:46:18.917Z,37.07
2018-09-15T02:48:47.367Z,30.30
2018-09-15T02:51:15.831Z,32.73
2018-09-15T02:53:44.284Z,33.77
2018-09-15T02:56:12.732Z,30.90
2018-09-15T02:58:41.200Z,29.50
2018-09-15T03:01:09.701Z,37.30
2018-09-15T03:03:38.169Z,38.77
2018-09-15T03:06:06.961Z,41.90
2018-09-15T03:08:35.579Z,38.30
2018-09-15T03:11:04.117Z,45.73
2018-09-15T03:13:32.570Z,42.40
2018-09-15T03:16:01.022Z,43.87
2018-09-15T03:18:29.488Z,38.03
2018-09-15T03:20:58.028Z,40.13
2018-09-15T03:23:26.476Z,42.80
2018-09-15T03:25:55.045Z,37.47
2018-09-15T03:28:23.510Z,42.97
2018-09-15T03:30:52.097Z,44.93
2018-09-15T03:33:20.585Z,47.37
2018-09-15T03:35:49.042Z,55.30
2018-09-15T03:38:17.623Z,41.00
2018-09-15T03:40:46.085Z,36.83
2018-09-15T03:43:14.569Z,43.73
2018-09-15T03:45:42.992Z,50.83
2018-09-15T03:48:11.469Z,42.47
2018-09-15T03:50:39.905Z,43.53
2018-09-15T03:53:08.412Z,34.90
2018-09-15T03:55:36.856Z,44.07
2018-09-15T03:58:05.376Z,42.13
2018-09-15T04:00:34.358Z,43.10
2018-09-15T04:03:02.807Z,37.10
2018-09-15T04:05:31.300Z,36.03
2018-09-15T04:07:59.732Z,40.47
2018-09-15T04:10:28.186Z,37.13
2018-09-15T04:12:56.618Z,40.33
2018-09-15T04:15:25.100Z,39.90
2018-09-15T04:17:53.565Z,34.27
2018-09-15T04:20:22.080Z,36.60
2018-09-15T04:22:50.583Z,35.00
2018-09-15T04:25:19.102Z,34.63
2018-09-15T04:27:47.649Z,29.70
2018-09-15T04:30:16.109Z,36.90
2018-09-15T04:32:44.629Z,32.87
2018-09-15T04:35:13.172Z,36.97
2018-09-15T04:37:41.690Z,36.33
2018-09-15T04:40:10.132Z,42.33
2018-09-15T04:42:38.581Z,33.10
2018-09-15T04:45:07.163Z,31.40
2018-09-15T04:47:35.896Z,37.80
2018-09-15T04:50:04.797Z,33.23
2018-09-15T04:52:33.253Z,38.63
2018-09-15T04:55:01.705Z,30.60
2018-09-15T04:57:30.729Z,32.00
2018-09-15T04:59:59.212Z,35.90
2018-09-15T05:02:27.696Z,32.67
2018-09-15T05:04:56.230Z,36.90
2018-09-15T05:07:24.844Z,33.87
2018-09-15T05:09:53.422Z,34.33
2018-09-15T05:12:22.380Z,36.00
2018-09-15T05:14:50.840Z,39.17
2018-09-15T05:17:20.696Z,37.43
2018-09-15T05:19:49.179Z,35.53
2018-09-15T05:22:17.638Z,32.07
2018-09-15T05:24:46.882Z,32.50
2018-09-15T05:27:15.506Z,38.93
2018-09-15T05:29:43.977Z,41.20
2018-09-15T05:32:12.457Z,37.03
2018-09-15T05:34:41.018Z,41.80
2018-09-15T05:37:09.629Z,42.50
2018-09-15T05:39:38.275Z,37.57
2018-09-15T05:42:07.357Z,36.47
2018-09-15T05:44:35.850Z,34.73
2018-09-15T05:47:04.333Z,33.40
2018-09-15T05:49:32.860Z,36.47
2018-09-15T05:52:02.256Z,40.63
2018-09-15T05:54:30.752Z,36.47
2018-09-15T05:56:59.312Z,33.17
2018-09-15T05:59:27.900Z,39.17
2018-09-15T06:01:56.447Z,36.60
2018-09-15T06:04:25.881Z,31.90
2018-09-15T06:06:54.469Z,41.73
2018-09-15T06:09:22.905Z,31.57
2018-09-15T06:11:51.539Z,27.57
2018-09-15T06:14:20.009Z,34.43
2018-09-15T06:16:48.532Z,31.17
2018-09-15T06:19:17.010Z,28.93
2018-09-15T06:21:45.548Z,25.90
2018-09-15T06:24:14.221Z,26.40
2018-09-15T06:26:42.958Z,25.57
2018-09-15T06:29:11.586Z,22.37
2018-09-15T06:31:40.091Z,28.53
2018-09-15T06:34:08.685Z,24.10
2018-09-15T06:36:37.210Z,27.93
2018-09-15T06:39:08.866Z,27.10
2018-09-15T06:41:37.616Z,25.17
2018-09-15T06:44:06.143Z,28.70
2018-09-15T06:46:34.708Z,23.43
2018-09-15T06:49:03.361Z,23.40
2018-09-15T06:51:31.911Z,29.30
2018-09-15T06:54:00.867Z,21.73
2018-09-15T06:56:29.368Z,22.73
2018-09-15T06:58:57.928Z,24.53
2018-09-15T07:01:26.777Z,22.00
2018-09-15T07:03:55.348Z,26.60
2018-09-15T07:06:23.870Z,25.57
2018-09-15T07:08:52.562Z,23.63
2018-09-15T07:11:21.016Z,23.40
2018-09-15T07:13:49.615Z,19.73
2018-09-15T07:16:18.183Z,21.90
2018-09-15T07:18:46.641Z,19.67
2018-09-15T07:21:15.264Z,24.70
2018-09-15T07:23:43.709Z,21.70
2018-09-15T07:26:12.797Z,22.27
2018-09-15T07:28:41.302Z,23.53
2018-09-15T07:31:09.942Z,19.20
2018-09-15T07:33:38.341Z,21.70
2018-09-15T07:36:06.985Z,22.07
2018-09-15T07:38:35.506Z,19.00
2018-09-15T07:41:04.318Z,22.27
2018-09-15T07:43:32.996Z,18.40
2018-09-15T07:46:02.764Z,21.13
2018-09-15T07:48:31.938Z,15.63
2018-09-15T07:51:00.549Z,17.37
2018-09-15T07:53:29.036Z,16.17
2018-09-15T07:55:57.521Z,16.30
2018-09-15T07:58:26.003Z,19.13
2018-09-15T08:00:54.519Z,17.90
2018-09-15T08:03:23.073Z,16.60
2018-09-15T08:05:51.553Z,18.23
2018-09-15T08:08:20.037Z,16.20
2018-09-15T08:10:48.493Z,13.63
2018-09-15T08:13:16.977Z,13.77
2018-09-15T08:15:45.424Z,13.67
2018-09-15T08:18:13.928Z,18.07
2018-09-15T08:20:42.449Z,15.80
2018-09-15T08:23:10.892Z,12.07
2018-09-15T08:25:39.527Z,15.97
2018-09-15T08:28:07.998Z,14.10
2018-09-15T08:30:36.452Z,14.17
2018-09-15T08:33:04.911Z,12.83
2018-09-15T08:35:33.384Z,12.67
2018-09-15T08:38:01.876Z,13.37
2018-09-15T08:40:30.302Z,11.20
2018-09-15T08:42:58.765Z,13.80
2018-09-15T08:45:27.633Z,13.27
2018-09-15T08:47:56.078Z,14.47
2018-09-15T08:50:24.941Z,10.87
2018-09-15T08:52:53.376Z,10.80
2018-09-15T08:55:21.865Z,15.77
2018-09-15T08:57:50.934Z,14.60
2018-09-15T09:00:19.464Z,10.27
2018-09-15T09:02:47.913Z,8.53
2018-09-15T09:05:16.377Z,7.07
2018-09-15T09:07:44.949Z,12.10
2018-09-15T09:10:13.543Z,11.20
2018-09-15T09:12:42.075Z,10.23
2018-09-15T09:15:10.610Z,11.73
2018-09-15T09:17:39.057Z,10.40
2018-09-15T09:20:08.155Z,8.97
2018-09-15T09:22:36.715Z,13.53
2018-09-15T09:25:05.215Z,12.00
2018-09-15T09:27:33.730Z,10.07
2018-09-15T09:30:02.369Z,12.33
2018-09-15T09:32:31.089Z,10.00
2018-09-15T09:35:00.141Z,11.90
2018-09-15T09:37:28.713Z,7.27
2018-09-15T09:39:57.220Z,8.80
2018-09-15T09:42:25.971Z,7.17
2018-09-15T09:44:54.708Z,8.20
2018-09-15T09:47:23.197Z,8.73
2018-09-15T09:49:51.638Z,9.93
2018-09-15T09:52:20.147Z,10.13
2018-09-15T09:54:48.609Z,12.10
2018-09-15T09:57:17.117Z,8.40
2018-09-15T09:59:45.638Z,8.87
2018-09-15T10:02:15.357Z,10.83
2018-09-15T10:04:43.859Z,7.43
2018-09-15T10:07:12.484Z,8.37
2018-09-15T10:09:41.050Z,13.10
2018-09-15T10:12:10.120Z,9.90
2018-09-15T10:14:38.586Z,7.03
2018-09-15T10:17:07.340Z,10.73
2018-09-15T10:19:35.905Z,7.57
2018-09-15T10:22:04.455Z,5.93
2018-09-15T10:24:33.652Z,8.67
2018-09-15T10:27:02.382Z,7.80
2018-09-15T10:29:30.840Z,6.93
2018-09-15T10:31:59.523Z,6.97
2018-09-15T10:34:28.023Z,6.63
2018-09-15T10:36:56.642Z,7.37
2018-09-15T10:39:25.678Z,5.83
2018-09-15T10:41:53.752Z,6.47
2018-09-15T10:44:22.229Z,13.33
2018-09-15T10:46:50.709Z,6.97
2018-09-15T10:49:19.186Z,6.40
2018-09-15T10:51:48.188Z,5.40
2018-09-15T10:54:16.866Z,13.40
2018-09-15T10:56:45.898Z,7.37
2018-09-15T10:59:14.357Z,4.57
2018-09-15T11:01:42.796Z,6.33
2018-09-15T11:04:11.500Z,9.20
2018-09-15T11:06:39.989Z,11.23
2018-09-15T11:09:09.529Z,11.70
2018-09-15T11:11:38.009Z,8.33
2018-09-15T11:14:06.808Z,6.10
2018-09-15T11:16:35.258Z,10.60
2018-09-15T11:19:03.749Z,10.20
2018-09-15T11:21:32.222Z,6.40
2018-09-15T11:24:00.669Z,5.00
2018-09-15T11:26:29.212Z,7.10
2018-09-15T11:28:57.875Z,11.07
2018-09-15T11:31:26.881Z,6.20
2018-09-15T11:33:56.358Z,8.23
2018-09-15T11:36:24.888Z,5.93
2018-09-15T11:38:53.433Z,5.03
2018-09-15T11:41:22.074Z,8.33
2018-09-15T11:43:50.572Z,9.77
2018-09-15T11:46:19.209Z,7.37
2018-09-15T11:48:47.668Z,5.40
2018-09-15T11:51:16.277Z,8.67
2018-09-15T11:53:44.930Z,7.57
2018-09-15T11:56:14.805Z,5.10
2018-09-15T11:58:43.782Z,7.30
2018-09-15T12:01:12.246Z,9.13
2018-09-15T12:03:40.738Z,5.80
2018-09-15T12:06:09.322Z,5.13
2018-09-15T12:08:37.815Z,6.90
2018-09-15T12:11:06.264Z,6.67
2018-09-15T12:13:34.769Z,8.47
2018-09-15T12:16:03.236Z,6.93
2018-09-15T12:18:32.701Z,5.13
2018-09-15T12:21:01.248Z,7.10
2018-09-15T12:23:29.725Z,6.13
2018-09-15T12:25:58.212Z,4.90
2018-09-15T12:28:26.825Z,6.40
2018-09-15T12:30:55.307Z,6.60
2018-09-15T12:33:23.893Z,7.87
2018-09-15T12:35:52.633Z,6.50
2018-09-15T12:38:21.415Z,7.90
2018-09-15T12:40:49.942Z,6.23
2018-09-15T12:43:19.910Z,6.30
2018-09-15T12:45:48.650Z,5.53
2018-09-15T12:48:17.180Z,10.10
2018-09-15T12:50:45.757Z,6.20
2018-09-15T12:53:14.362Z,7.33
2018-09-15T12:55:42.849Z,5.60
2018-09-15T12:58:11.372Z,6.63
2018-09-15T13:00:39.828Z,5.53
2018-09-15T13:03:08.311Z,4.30
2018-09-15T13:05:37.026Z,7.57
2018-09-15T13:08:05.544Z,7.83
2018-09-15T13:10:34.061Z,4.70
2018-09-15T13:13:03.025Z,5.80
2018-09-15T13:15:32.231Z,4.80
2018-09-15T13:18:00.835Z,6.50
2018-09-15T13:20:29.422Z,5.17
2018-09-15T13:22:58.070Z,4.73
2018-09-15T13:25:26.660Z,5.07
2018-09-15T13:27:55.344Z,5.90
2018-09-15T13:30:24.729Z,6.57
2018-09-15T13:32:53.239Z,7.50
2018-09-15T13:35:21.716Z,7.33
2018-09-15T13:37:50.172Z,8.50
2018-09-15T13:40:18.676Z,6.37
2018-09-15T13:42:47.715Z,4.87
2018-09-15T13:45:16.276Z,8.83
2018-09-15T13:47:44.717Z,4.43
2018-09-15T13:50:13.824Z,4.97
2018-09-15T13:52:42.345Z,8.10
2018-09-15T13:55:10.819Z,5.60
2018-09-15T13:57:40.217Z,5.20
2018-09-15T14:00:08.872Z,7.23
2018-09-15T14:02:43.033Z,4.40
2018-09-15T14:05:13.434Z,6.93
2018-09-15T14:07:42.508Z,5.93
2018-09-15T14:10:11.609Z,4.07
2018-09-15T14:12:40.580Z,6.00
2018-09-15T14:15:09.186Z,5.73
2018-09-15T14:17:37.721Z,8.13
2018-09-15T14:20:06.528Z,5.30
2018-09-15T14:22:35.065Z,5.20
2018-09-15T14:25:04.124Z,6.87
2018-09-15T14:27:32.558Z,6.87
2018-09-15T14:30:01.522Z,12.10
2018-09-15T14:32:30.101Z,4.37
2018-09-15T14:34:58.675Z,6.30
2018-09-15T14:37:27.904Z,6.73
2018-09-15T14:39:56.361Z,8.00
2018-09-15T14:42:25.182Z,7.83
2018-09-15T14:44:53.865Z,9.17
2018-09-15T14:47:23.053Z,6.40
2018-09-15T14:49:52.017Z,5.50
2018-09-15T14:52:20.968Z,6.20
2018-09-15T14:54:51.157Z,7.40
2018-09-15T14:57:19.671Z,8.17
2018-09-15T14:59:48.148Z,6.80
2018-09-15T15:02:16.661Z,5.30
2018-09-15T15:04:45.496Z,8.20
2018-09-15T15:07:14.123Z,5.13
2018-09-15T15:09:43.095Z,6.43
2018-09-15T15:12:13.492Z,5.03
2018-09-15T15:14:42.035Z,8.00
2018-09-15T15:17:10.495Z,5.30
2018-09-15T15:19:39.089Z,4.10
2018-09-15T15:22:07.829Z,5.83
2018-09-15T15:24:36.377Z,9.83
2018-09-15T15:27:04.997Z,6.27
2018-09-15T15:29:33.661Z,5.20
2018-09-15T15:32:02.174Z,6.37
2018-09-15T15:34:30.823Z,8.30
2018-09-15T15:36:59.552Z,3.80
2018-09-15T15:39:28.269Z,5.40
2018-09-15T15:41:57.554Z,6.07
2018-09-15T15:44:26.074Z,3.20
2018-09-15T15:46:59.201Z,6.47
2018-09-15T15:49:27.765Z,7.10
2018-09-15T15:51:59.415Z,13.13
2018-09-15T15:54:28.081Z,3.60
2018-09-15T15:56:56.552Z,10.37
2018-09-15T15:59:25.105Z,5.10
2018-09-15T16:01:53.563Z,6.53
2018-09-15T16:04:22.326Z,6.63
2018-09-15T16:06:50.754Z,4.40
2018-09-15T16:09:19.241Z,7.13
2018-09-15T16:11:47.861Z,4.47
2018-09-15T16:14:16.429Z,4.00
2018-09-15T16:16:44.904Z,4.87
2018-09-15T16:19:14.417Z,6.80
2018-09-15T16:21:42.880Z,4.73
2018-09-15T16:24:11.507Z,5.50
2018-09-15T16:26:40.041Z,4.30
2018-09-15T16:29:08.594Z,3.17
2018-09-15T16:31:37.026Z,6.83
2018-09-15T16:34:05.655Z,7.00
2018-09-15T16:36:34.218Z,3.50
2018-09-15T16:39:02.704Z,6.30
2018-09-15T16:41:31.146Z,4.43
2018-09-15T16:43:59.706Z,12.73
2018-09-15T16:46:28.212Z,8.13
2018-09-15T16:48:56.727Z,10.80
2018-09-15T16:51:25.409Z,21.80
2018-09-15T16:53:54.850Z,12.00
2018-09-15T16:56:23.357Z,13.63
2018-09-15T16:58:52.268Z,11.40
2018-09-15T17:01:21.057Z,8.53
2018-09-15T17:03:49.865Z,4.50
2018-09-15T17:06:18.744Z,5.43
2018-09-15T17:08:47.387Z,5.67
2018-09-15T17:11:15.988Z,5.30
2018-09-15T17:13:44.478Z,6.07
2018-09-15T17:16:13.176Z,8.53
2018-09-15T17:18:41.628Z,13.67
2018-09-15T17:21:10.175Z,10.87
2018-09-15T17:23:38.648Z,8.83
2018-09-15T17:26:07.191Z,7.80
2018-09-15T17:28:35.658Z,6.17
2018-09-15T17:31:04.298Z,6.07
2018-09-15T17:33:32.771Z,10.10
2018-09-15T17:36:01.480Z,3.73
2018-09-15T17:38:29.894Z,11.23
2018-09-15T17:40:58.435Z,5.57
2018-09-15T17:43:27.048Z,8.40
2018-09-15T17:45:55.519Z,8.33
2018-09-15T17:48:23.965Z,4.53
2018-09-15T17:50:53.227Z,8.30
2018-09-15T17:53:21.674Z,7.60
2018-09-15T17:55:50.890Z,5.27
2018-09-15T17:58:19.366Z,5.70
2018-09-15T18:00:48.518Z,9.70
2018-09-15T18:03:17.025Z,4.93
2018-09-15T18:05:45.700Z,4.20
2018-09-15T18:08:14.767Z,4.07
2018-09-15T18:10:43.784Z,4.27
2018-09-15T18:13:12.269Z,4.90
2018-09-15T18:15:40.816Z,6.40
2018-09-15T18:18:09.324Z,7.03
2018-09-15T18:20:37.843Z,5.00
2018-09-15T18:23:06.580Z,6.50
2018-09-15T18:25:35.068Z,8.73
2018-09-15T18:28:03.783Z,6.07
2018-09-15T18:30:32.378Z,5.27
2018-09-15T18:33:00.860Z,4.30
2018-09-15T18:35:29.422Z,6.07
2018-09-15T18:37:57.965Z,6.27
2018-09-15T18:40:26.481Z,4.50
2018-09-15T18:42:55.149Z,6.80
2018-09-15T18:45:23.633Z,4.53
2018-09-15T18:47:52.149Z,8.27
2018-09-15T18:50:20.632Z,4.63
2018-09-15T18:52:50.145Z,6.70
2018-09-15T18:55:18.599Z,3.77
2018-09-15T18:57:47.081Z,9.63
2018-09-15T19:00:16.276Z,6.13
2018-09-15T19:02:44.668Z,8.40
2018-09-15T19:05:13.269Z,6.20
2018-09-15T19:07:41.722Z,7.17
2018-09-15T19:10:10.217Z,8.40
2018-09-15T19:12:38.717Z,6.03
2018-09-15T19:15:07.436Z,5.60
2018-09-15T19:17:35.987Z,10.63
2018-09-15T19:20:05.125Z,13.10
2018-09-15T19:22:34.072Z,7.13
2018-09-15T19:25:02.567Z,9.60
2018-09-15T19:27:31.158Z,8.27
2018-09-15T19:29:59.917Z,9.20
2018-09-15T19:32:28.402Z,10.90
2018-09-15T19:34:57.596Z,11.50
2018-09-15T19:37:26.124Z,8.20
2018-09-15T19:39:54.576Z,5.83
2018-09-15T19:42:23.108Z,7.40
2018-09-15T19:44:51.557Z,8.23
2018-09-15T19:47:20.124Z,6.17
2018-09-15T19:49:48.657Z,6.97
2018-09-15T19:52:17.366Z,5.23
2018-09-15T19:54:45.890Z,8.03
2018-09-15T19:57:14.349Z,3.93
2018-09-15T19:59:42.985Z,7.10
2018-09-15T20:02:11.507Z,6.60
2018-09-15T20:04:40.067Z,11.70
2018-09-15T20:07:08.701Z,9.20
2018-09-15T20:09:37.165Z,6.73
2018-09-15T20:12:05.669Z,6.30
2018-09-15T20:14:34.196Z,10.93
2018-09-15T20:17:01.553Z,7.73
2018-09-15T20:19:28.875Z,11.60
2018-09-15T20:21:56.313Z,6.30
2018-09-15T20:24:24.885Z,11.50
2018-09-15T20:26:53.364Z,8.17
2018-09-15T20:29:21.821Z,8.23
2018-09-15T20:31:50.353Z,8.27
2018-09-15T20:34:18.829Z,5.70
2018-09-15T20:36:47.371Z,5.37
2018-09-15T20:39:15.880Z,12.07
2018-09-15T20:41:44.540Z,7.10
2018-09-15T20:44:13.049Z,7.97
2018-09-15T20:46:42.032Z,5.07
2018-09-15T20:49:10.591Z,14.03
2018-09-15T20:51:38.972Z,7.20
2018-09-15T20:54:07.758Z,5.67
2018-09-15T20:56:36.455Z,6.87
2018-09-15T20:59:05.147Z,6.63
2018-09-15T21:01:33.628Z,4.80
2018-09-15T21:04:02.139Z,11.23
2018-09-15T21:06:30.609Z,22.73
2018-09-15T21:08:59.177Z,17.60
2018-09-15T21:11:27.909Z,15.13
2018-09-15T21:13:56.445Z,10.40
2018-09-15T21:16:25.701Z,7.53
2018-09-15T21:18:54.240Z,7.00
2018-09-15T21:21:23.336Z,7.53
2018-09-15T21:23:51.933Z,5.27
2018-09-15T21:26:20.416Z,8.10
2018-09-15T21:28:49.029Z,10.90
2018-09-15T21:31:17.495Z,4.77
2018-09-15T21:33:46.048Z,9.50
2018-09-15T21:36:14.657Z,12.17
2018-09-15T21:38:43.248Z,7.70
2018-09-15T21:41:11.800Z,12.03
2018-09-15T21:43:40.314Z,6.30
2018-09-15T21:46:09.487Z,7.90
2018-09-15T21:48:37.881Z,7.30
2018-09-15T21:51:06.773Z,8.07
2018-09-15T21:53:35.397Z,8.17
2018-09-15T21:56:03.945Z,5.80
2018-09-15T21:58:32.541Z,8.20
2018-09-15T22:01:04.045Z,5.93
2018-09-15T22:03:36.929Z,7.20
2018-09-15T22:06:05.473Z,7.40
2018-09-15T22:08:33.955Z,6.40
2018-09-15T22:11:02.414Z,9.33
2018-09-15T22:13:31.840Z,5.53
2018-09-15T22:16:00.466Z,5.57
2018-09-15T22:18:28.940Z,8.53
2018-09-15T22:20:57.401Z,8.33
2018-09-15T22:23:25.953Z,6.67
2018-09-15T22:25:55.458Z,9.70
2018-09-15T22:28:24.517Z,5.00
2018-09-15T22:30:53.003Z,11.40
2018-09-15T22:33:21.473Z,8.83
2018-09-15T22:35:49.959Z,5.25
2018-09-15T22:38:18.676Z,7.80
2018-09-15T22:40:47.747Z,8.43
2018-09-15T22:43:16.249Z,7.73
2018-09-15T22:45:44.721Z,10.00
2018-09-15T22:48:13.589Z,8.48
2018-09-15T22:50:42.067Z,6.50
2018-09-15T22:53:11.428Z,7.70
2018-09-15T22:55:39.926Z,7.28
2018-09-15T22:58:09.311Z,10.32
2018-09-15T23:00:37.888Z,9.33
2018-09-15T23:03:06.916Z,6.50
2018-09-15T23:05:35.561Z,12.20
2018-09-15T23:08:04.075Z,11.28
2018-09-15T23:10:32.634Z,8.28
2018-09-15T23:13:01.128Z,6.62
2018-09-15T23:15:29.644Z,5.55
2018-09-15T23:17:58.258Z,6.17
2018-09-15T23:20:26.707Z,5.97
2018-09-15T23:22:55.300Z,7.70
2018-09-15T23:25:24.314Z,7.20
2018-09-15T23:27:52.757Z,9.70
2018-09-15T23:30:21.279Z,9.10
2018-09-15T23:32:49.800Z,11.50
2018-09-15T23:35:18.292Z,9.38
2018-09-15T23:37:46.802Z,9.90
2018-09-15T23:40:15.261Z,6.55
2018-09-15T23:42:43.828Z,11.53
2018-09-15T23:45:12.288Z,12.03
2018-09-15T23:47:41.603Z,8.00
2018-09-15T23:50:10.089Z,7.00
2018-09-15T23:52:39.559Z,6.67
2018-09-15T23:55:08.034Z,7.50
2018-09-15T23:57:36.490Z,6.55
